Station: Swansea  

  Atmospheric Gas Attenuation - ITU Rec 676-11   ----------------- dB/100km -----------------
Date Time Temp RH % AH g/m3 Dew Point Wind Direction Speed kph Gust kph Barometer mB Rainfall Since 9am 24GHz 47GHz 76GHz 122GHz 134GHz 241GHz
08/05 09:00 11.1 73 7.35 6.4 6 1013.1 0.2 17.0 24.6 36.1 94.5 85.1 291.7
06/05 09:00 16.5 60 8.42 8.9 28 1013.1 0 19.1 24.8 37.8 99.1 92.8 319.1
05/05 09:00 15 74 9.49 10.4 4 1013.1 0 21.4 27.0 42.8 112.4 108.6 374.5
04/05 09:00 15.5 73 9.65 10.8 4 1013.1 8 21.7 27.1 43.1 113.4 110.1 379.5
03/05 09:00 12.9 76 8.57 8.9 4 1013.1 0 19.6 26.1 40.1 105.3 99.1 341.0
02/05 09:00 12.4 74 8.09 7.9 6 1013.1 0 18.6 25.5 38.4 100.8 93.4 320.7
01/05 09:00 19.3 52 8.62 9.2 7 1013.1 0 19.4 24.4 37.2 97.7 92.0 316.6
30/04 09:00 15.1 85 10.97 12.7 6 1013.1 0 24.6 29.4 48.9 128.8 128.8 445.1
29/04 09:00 14 74 8.93 9.5 6 1013.1 0 20.3 26.4 41.0 107.7 102.5 352.9
28/04 09:00 14.7 78 9.82 10.9 15 1013.1 0 22.2 27.6 44.3 116.5 113.5 391.5
27/04 09:00 17 79 11.43 13.4 4 1013.1 0 25.5 29.6 49.7 130.8 132.0 456.5
26/04 09:00 17.1 74 10.77 12.4 4 1013.1 0 24.0 28.4 46.8 123.3 122.8 424.2
25/04 09:00 21.5 62 11.69 13.9 19 1013.1 0 25.7 28.5 47.9 126.3 128.0 442.9
24/04 09:00 17 74 10.71 12.4 4 1013.1 0 23.9 28.4 46.6 122.8 122.1 421.9
23/04 09:00 16.3 84 11.65 13.6 4 1013.1 0 26.0 30.2 51.1 134.5 136.4 471.5
22/04 09:00 14 79 9.53 10.5 4 1013.1 0 21.6 27.4 43.5 114.3 110.6 381.2
21/04 09:00 12.7 87 9.69 10.6 4 1013.1 0 22.0 28.0 44.9 118.0 114.7 395.4
20/04 09:00 12.5 89 9.79 10.8 4 1013.1 0 22.2 28.3 45.4 119.5 116.4 401.3
19/04 09:00 10.8 95 9.39 10 4 1013.1 0 21.4 28.1 44.7 117.5 113.3 390.3
18/04 09:00 11.4 97 9.96 11 33 1013.1 0 22.6 28.9 46.8 123.1 120.5 415.6
17/04 09:00 12.8 99 11.09 12.6 24 1013.1 0 25.0 30.5 50.9 134.1 134.5 464.7
16/04 09:00 16 97 13.22 15.5 9 1013.1 0 29.4 33.1 58.3 153.7 159.8 553.3
15/04 09:00 13.5 94 11 12.6 4 1013.1 0 24.8 30.0 50.1 131.8 132.0 455.9
14/04 09:00 12.1 92 9.87 10.8 4 1013.1 0 22.4 28.5 46.0 121.0 118.2 407.3
13/04 09:00 14.8 93 11.78 13.7 11 1013.1 0 26.4 31.0 52.6 138.7 141.0 487.4
12/04 09:00 11.1 99 9.97 10.9 22 1013.1 0 22.7 29.0 47.0 123.7 121.2 417.7
11/04 09:00 11.6 99 10.29 11.4 28 1013.1 0.4 23.3 29.4 48.1 126.7 125.0 431.1
10/04 09:00 13 88 9.98 11.1 19 1013.1 0.8 22.6 28.4 45.9 120.8 118.3 408.0
09/04 09:00 16.5 81 11.37 13.3 4 1013.1 0 25.4 29.7 49.7 131.0 132.1 456.5
08/04 09:00 14.4 67 8.28 8.4 4 1013.1 0 18.9 25.2 38.2 100.3 93.5 321.3
07/04 09:00 16.8 86 12.29 14.4 4 1013.1 4 27.3 31.2 53.5 141.1 144.6 500.2
06/04 09:00 14.1 88 10.68 12.1 4 1013.1 2 24.0 29.3 48.3 127.1 126.4 436.5
05/04 09:00 13.1 82 9.36 10.2 4 1013.1 21.3 27.4 43.3 113.7 109.6 377.4
04/04 09:00 8.1 84 6.99 5.6 7 1013.1 0 16.4 24.9 36.0 94.3 83.6 286.0
03/04 09:00 12.6 65 7.19 6.2 11 1013.1 0 16.6 24.0 34.8 91.1 81.5 279.1
02/04 09:00 16 66 8.99 9.6 4 1013.1 0 20.3 25.9 40.2 105.7 100.7 346.8
01/04 09:00 18 74 11.37 13.4 9 1013.1 0 25.3 29.2 48.8 128.5 129.5 447.8
31/03 09:00 15.2 81 10.51 11.9 4 1013.1 0 23.6 28.6 46.9 123.4 122.2 422.1
30/03 09:00 14.1 85 10.32 11.7 4 1013.1 0 23.3 28.7 46.7 123.0 121.3 418.8
29/03 09:00 9.1 92 8.17 7.8 6 1013.1 0 18.9 26.6 40.4 106.0 98.6 338.4
28/03 09:00 13.1 81 9.24 10 4 1013.1 0 21.0 27.2 42.8 112.4 107.9 371.7
27/03 09:00 11.1 70 7.05 5.9 17 1013.1 7 16.4 24.2 34.9 91.4 81.2 278.1
26/03 09:00 15.6 81 10.77 12.3 6 1013.1 0 24.1 28.9 47.7 125.7 125.2 432.5
25/03 09:00 15.3 3 0.39 -28 6 1013.1 5 2.3 14.4 11.8 29.4 6.2 14.2
24/03 09:00 16.2 88 12.13 14.3 9 1013.1 1 27.0 31.1 53.2 140.3 143.4 496.1
23/03 09:00 19 83 13.52 16.1 4 1013.1 0 29.8 32.5 57.3 151.3 157.9 547.1
22/03 09:00 11.6 94 9.77 10.6 6 1013.1 0 22.2 28.5 45.9 120.6 117.5 405.0
21/03 09:00 14.9 78 9.94 11.1 6 1013.1 0 22.4 27.8 44.7 117.5 114.9 396.2
20/03 09:00 15.5 82 10.84 12.4 6 1013.1 0 24.3 29.1 48.1 126.6 126.3 436.4
19/03 09:00 12.4 86 9.4 10.1 6 1013.1 0 21.4 27.6 43.8 115.2 111.1 382.8
18/03 09:00 17.3 76 11.2 13 6 1013.1 0 25.0 29.1 48.5 127.7 128.3 443.6
17/03 09:00 16.8 60 8.58 9.1 4 1013.1 2 19.4 25.0 38.2 100.3 94.4 325.0
16/03 09:00 17.1 87 12.66 15 6 1013.1 0 28.1 31.7 54.9 144.8 149.3 516.9
15/03 09:00 15.3 84 10.97 12.6 4 1013.1 0 24.6 29.4 48.8 128.4 128.5 443.9
14/03 09:00 11.6 81 8.42 8.5 4 1013.1 0 19.3 26.2 40.2 105.4 98.8 339.6
13/03 09:00 13.1 66 7.53 6.9 4 1013.1 0 17.3 24.4 35.9 94.0 85.3 292.5
12/03 09:00 11.7 84 8.79 9.1 4 1013.1 7 20.1 26.8 41.6 109.4 103.7 356.7
11/03 09:00 16.3 94 13.04 15.4 4 1013.1 2 29.0 32.7 57.2 150.9 156.5 541.8
10/03 09:00 16.1 81 11.1 12.9 4 1013.1 0 24.8 29.3 48.8 128.6 129.0 445.7
09/03 09:00 16 71 9.67 10.7 4 1013.1 0 21.8 27.0 43.0 112.9 109.6 378.1
08/03 09:00 14 69 8.32 8.4 9 1013.1 0 19.0 25.4 38.6 101.2 94.5 324.7
07/03 09:00 18 60 9.21 10.1 9 1013.1 0 20.7 25.6 40.1 105.3 100.9 347.9
06/03 09:00 18.7 64 10.25 11.8 4 1013.1 0 22.9 27.1 43.8 115.2 113.4 391.6
05/03 09:00 19.4 66 11.01 12.9 11 1013.1 0 24.4 28.1 46.5 122.3 122.4 423.0
04/03 09:00 16.3 85 11.79 13.8 4 1013.1 0 26.3 30.5 51.7 136.2 138.3 478.5
03/03 09:00 14.8 80 10.13 11.4 11 1013.1 3 22.8 28.1 45.5 119.7 117.6 405.9
02/03 09:00 19.3 98 16.25 19 6 1013.1 3 35.6 37.4 69.6 184.0 198.2 687.6
01/03 09:00 18.5 40 6.33 4.7 22 1013.1 0 14.6 21.3 29.3 76.6 65.7 224.4
28/02 09:00 14.6 88 11.01 12.6 9 1013.1 0 24.7 29.7 49.4 130.1 130.3 450.0
27/02 09:00 15 74 9.49 10.4 4 1013.1 0 21.4 27.0 42.8 112.4 108.6 374.5
26/02 09:00 15 71 9.1 9.8 0 1013.1 0 20.6 26.3 41.2 108.2 103.4 356.3
25/02 09:00 15.1 73 9.42 10.3 9 1013.1 0 21.3 26.8 42.4 111.5 107.6 370.7
24/02 09:00 16.1 64 8.77 9.3 4 1013.1 0 19.8 25.5 39.3 103.2 97.7 336.4
23/02 09:00 16.1 58 7.95 8 9 1013.1 0.6 18.1 24.2 36.2 94.8 87.3 299.9
22/02 09:00 18.3 75 11.73 13.8 9 1013.1 0 26.0 29.7 50.1 132.0 133.9 463.3
21/02 09:00 18.5 76 12.02 14.2 11 1013.1 0 26.6 30.1 51.2 134.9 137.6 476.2
20/02 09:00 17 73 10.56 12.1 4 1013.1 0 23.6 28.1 46.0 121.1 120.1 414.8
19/02 09:00 18.8 63 10.15 11.7 6 1013.1 0 22.6 26.9 43.4 114.0 111.9 386.5
18/02 09:00 15.7 65 8.7 9.1 6 1013.1 2 19.7 25.5 39.2 103.0 97.3 334.9
17/02 09:00 18.8 70 11.27 13.2 11 1013.1 0 25.0 28.7 47.9 126.1 126.8 438.5
16/02 09:00 18.1 68 10.51 12.1 19 1013.1 0 23.4 27.7 45.2 118.9 117.7 406.6
15/02 09:00 18.4 73 11.48 13.6 9 1013.1 0 25.5 29.2 49.0 129.1 130.3 450.7
14/02 09:00 16.1 81 11.1 12.8 6 1013.1 0.2 24.8 29.3 48.8 128.6 129.0 445.7
13/02 09:00 16 57 7.77 7.6 4 1013.1 0 17.7 24.0 35.5 93.1 85.2 292.5
12/02 09:00 13.7 55 6.51 4.9 9 1013.1 0 15.1 22.7 31.8 83.0 71.9 245.7
11/02 09:00 18.8 73 11.76 13.9 4 1013.1 0 26.1 29.5 49.9 131.5 133.5 461.8
10/02 09:00 15.4 93 12.22 14.3 6 1013.1 2 27.3 31.5 54.2 142.8 146.2 505.9
09/02 09:00 17.3 80 11.78 13.8 6 1013.1 2 26.2 30.1 51.0 134.3 136.4 471.8
08/02 09:00 16.5 80 11.23 13.1 4 1013.1 0 25.1 29.4 49.1 129.4 130.1 449.7
07/02 09:00 18.1 60 9.27 10.2 6 1013.1 0 20.8 25.7 40.3 105.8 101.6 350.1
06/02 09:00 14.4 65 8.04 8 0 1013.1 0 18.4 24.8 37.3 97.8 90.4 310.5
05/02 09:00 18.7 45 7.2 6.7 19 1013.1 0 16.4 22.4 32.3 84.5 75.6 259.1
04/02 09:00 15.7 74 9.9 11.2 6 1013.1 0 22.3 27.4 44.1 115.8 113.1 390.3
03/02 09:00 16.5 52 7.3 6.7 9 1013.1 0 16.7 23.1 33.6 87.8 78.9 270.5
02/02 09:00 14.7 49 6.17 4.3 19 1013.1 0 14.4 21.9 30.2 78.7 67.0 228.4
01/02 09:00 17.5 43 6.41 4.8 9 1013.1 0 14.8 21.6 30.0 78.3 67.4 230.4
31/01 09:00 20.1 79 13.73 16.3 7 1013.1 0 30.2 32.5 57.5 151.6 158.6 549.8
30/01 09:00 17.1 77 11.21 13 4 1013.1 0 25.0 29.2 48.7 128.2 128.8 445.3
29/01 09:00 14.5 92 11.44 13.2 0 1013.1 3 25.6 30.5 51.3 135.2 136.6 472.1
28/01 09:00 19.8 70 11.96 14.3 6 1013.1 0 26.4 29.5 50.1 132.0 134.5 465.4

Last Refresh: 08-May-2026 12:08:15

Bureau of Meteorology